sensor_id;sensor_type;location;lat;lon;timestamp;P1;durP1;ratioP1;P2;durP2;ratioP2
59788;SDS011;47353;51.614;5.530;2023-07-29T00:00:42;9.20;;;7.78;;
59788;SDS011;47353;51.614;5.530;2023-07-29T00:03:08;10.93;;;8.48;;
59788;SDS011;47353;51.614;5.530;2023-07-29T00:05:34;11.20;;;8.60;;
59788;SDS011;47353;51.614;5.530;2023-07-29T00:07:59;11.75;;;8.57;;
59788;SDS011;47353;51.614;5.530;2023-07-29T00:10:25;11.05;;;8.25;;
59788;SDS011;47353;51.614;5.530;2023-07-29T00:12:51;12.68;;;8.57;;
59788;SDS011;47353;51.614;5.530;2023-07-29T00:15:16;12.52;;;8.13;;
59788;SDS011;47353;51.614;5.530;2023-07-29T00:17:42;14.60;;;8.73;;
59788;SDS011;47353;51.614;5.530;2023-07-29T00:20:07;8.98;;;7.93;;
59788;SDS011;47353;51.614;5.530;2023-07-29T00:22:33;11.68;;;8.73;;
59788;SDS011;47353;51.614;5.530;2023-07-29T00:24:58;9.13;;;8.07;;
59788;SDS011;47353;51.614;5.530;2023-07-29T00:27:24;11.38;;;8.73;;
59788;SDS011;47353;51.614;5.530;2023-07-29T00:29:50;10.55;;;8.48;;
59788;SDS011;47353;51.614;5.530;2023-07-29T00:32:16;11.52;;;8.75;;
59788;SDS011;47353;51.614;5.530;2023-07-29T00:34:41;14.15;;;8.77;;
59788;SDS011;47353;51.614;5.530;2023-07-29T00:37:07;14.25;;;9.15;;
59788;SDS011;47353;51.614;5.530;2023-07-29T00:39:32;10.90;;;8.60;;
59788;SDS011;47353;51.614;5.530;2023-07-29T00:41:58;12.52;;;9.20;;
59788;SDS011;47353;51.614;5.530;2023-07-29T00:44:23;11.35;;;9.52;;
59788;SDS011;47353;51.614;5.530;2023-07-29T00:46:52;12.90;;;9.60;;
59788;SDS011;47353;51.614;5.530;2023-07-29T00:49:18;12.73;;;9.13;;
59788;SDS011;47353;51.614;5.530;2023-07-29T00:51:44;10.30;;;9.02;;
59788;SDS011;47353;51.614;5.530;2023-07-29T00:54:10;13.10;;;9.70;;
59788;SDS011;47353;51.614;5.530;2023-07-29T00:56:35;13.60;;;9.63;;
59788;SDS011;47353;51.614;5.530;2023-07-29T00:59:02;12.43;;;8.88;;
59788;SDS011;47353;51.614;5.530;2023-07-29T01:01:28;12.10;;;9.25;;
59788;SDS011;47353;51.614;5.530;2023-07-29T01:03:54;11.50;;;8.93;;
59788;SDS011;47353;51.614;5.530;2023-07-29T01:14:41;11.48;;;8.35;;
59788;SDS011;47353;51.614;5.530;2023-07-29T01:17:25;11.95;;;9.05;;
59788;SDS011;47353;51.614;5.530;2023-07-29T01:22:31;11.07;;;8.45;;
59788;SDS011;47353;51.614;5.530;2023-07-29T01:24:58;10.43;;;8.68;;
59788;SDS011;47353;51.614;5.530;2023-07-29T01:27:24;11.93;;;8.55;;
59788;SDS011;47353;51.614;5.530;2023-07-29T01:29:50;10.80;;;8.80;;
59788;SDS011;47353;51.614;5.530;2023-07-29T01:32:19;11.93;;;8.80;;
59788;SDS011;47353;51.614;5.530;2023-07-29T01:37:55;12.95;;;9.02;;
59788;SDS011;47353;51.614;5.530;2023-07-29T01:40:23;12.13;;;8.82;;
59788;SDS011;47353;51.614;5.530;2023-07-29T01:42:52;15.57;;;9.70;;
59788;SDS011;47353;51.614;5.530;2023-07-29T01:45:18;10.60;;;9.60;;
59788;SDS011;47353;51.614;5.530;2023-07-29T01:47:44;11.95;;;9.48;;
59788;SDS011;47353;51.614;5.530;2023-07-29T01:50:09;14.68;;;10.40;;
59788;SDS011;47353;51.614;5.530;2023-07-29T01:52:35;19.77;;;11.68;;
59788;SDS011;47353;51.614;5.530;2023-07-29T01:55:01;13.23;;;10.98;;
59788;SDS011;47353;51.614;5.530;2023-07-29T01:57:27;16.02;;;11.93;;
59788;SDS011;47353;51.614;5.530;2023-07-29T01:59:52;16.45;;;13.15;;
59788;SDS011;47353;51.614;5.530;2023-07-29T02:02:17;16.45;;;12.95;;
59788;SDS011;47353;51.614;5.530;2023-07-29T02:04:43;16.33;;;12.30;;
59788;SDS011;47353;51.614;5.530;2023-07-29T02:07:10;17.00;;;11.52;;
59788;SDS011;47353;51.614;5.530;2023-07-29T02:09:35;14.50;;;10.40;;
59788;SDS011;47353;51.614;5.530;2023-07-29T02:12:00;13.82;;;10.70;;
59788;SDS011;47353;51.614;5.530;2023-07-29T02:14:26;19.80;;;13.20;;
59788;SDS011;47353;51.614;5.530;2023-07-29T02:16:51;16.73;;;12.23;;
59788;SDS011;47353;51.614;5.530;2023-07-29T02:19:17;17.08;;;11.57;;
59788;SDS011;47353;51.614;5.530;2023-07-29T02:21:42;15.48;;;12.20;;
59788;SDS011;47353;51.614;5.530;2023-07-29T02:24:08;16.17;;;11.73;;
59788;SDS011;47353;51.614;5.530;2023-07-29T02:26:33;15.45;;;10.88;;
59788;SDS011;47353;51.614;5.530;2023-07-29T02:28:59;13.32;;;9.93;;
59788;SDS011;47353;51.614;5.530;2023-07-29T02:31:24;17.40;;;11.57;;
59788;SDS011;47353;51.614;5.530;2023-07-29T02:33:50;19.52;;;11.52;;
59788;SDS011;47353;51.614;5.530;2023-07-29T02:36:16;13.85;;;8.98;;
59788;SDS011;47353;51.614;5.530;2023-07-29T02:38:42;12.90;;;8.68;;
59788;SDS011;47353;51.614;5.530;2023-07-29T02:41:08;10.60;;;7.38;;
59788;SDS011;47353;51.614;5.530;2023-07-29T02:43:35;10.93;;;8.02;;
59788;SDS011;47353;51.614;5.530;2023-07-29T02:46:02;14.15;;;8.02;;
59788;SDS011;47353;51.614;5.530;2023-07-29T02:48:28;10.30;;;8.23;;
59788;SDS011;47353;51.614;5.530;2023-07-29T02:50:53;11.52;;;8.35;;
59788;SDS011;47353;51.614;5.530;2023-07-29T02:53:19;13.50;;;8.60;;
59788;SDS011;47353;51.614;5.530;2023-07-29T02:55:45;9.98;;;8.02;;
59788;SDS011;47353;51.614;5.530;2023-07-29T02:58:10;10.55;;;7.97;;
59788;SDS011;47353;51.614;5.530;2023-07-29T03:00:35;9.88;;;8.10;;
59788;SDS011;47353;51.614;5.530;2023-07-29T03:03:01;11.13;;;8.18;;
59788;SDS011;47353;51.614;5.530;2023-07-29T03:05:27;9.48;;;7.93;;
59788;SDS011;47353;51.614;5.530;2023-07-29T03:07:53;10.68;;;7.78;;
59788;SDS011;47353;51.614;5.530;2023-07-29T03:10:18;9.48;;;7.72;;
59788;SDS011;47353;51.614;5.530;2023-07-29T03:12:44;9.35;;;7.72;;
59788;SDS011;47353;51.614;5.530;2023-07-29T03:15:09;11.65;;;7.72;;
59788;SDS011;47353;51.614;5.530;2023-07-29T03:17:35;8.27;;;7.40;;
59788;SDS011;47353;51.614;5.530;2023-07-29T03:20:00;10.52;;;7.43;;
59788;SDS011;47353;51.614;5.530;2023-07-29T03:22:26;10.52;;;7.38;;
59788;SDS011;47353;51.614;5.530;2023-07-29T03:24:51;9.93;;;7.60;;
59788;SDS011;47353;51.614;5.530;2023-07-29T03:27:16;10.70;;;7.22;;
59788;SDS011;47353;51.614;5.530;2023-07-29T03:29:42;10.20;;;6.93;;
59788;SDS011;47353;51.614;5.530;2023-07-29T03:32:08;8.40;;;6.60;;
59788;SDS011;47353;51.614;5.530;2023-07-29T03:34:33;6.95;;;6.15;;
59788;SDS011;47353;51.614;5.530;2023-07-29T03:36:59;9.55;;;6.43;;
59788;SDS011;47353;51.614;5.530;2023-07-29T03:39:25;6.80;;;5.80;;
59788;SDS011;47353;51.614;5.530;2023-07-29T03:41:51;8.32;;;6.35;;
59788;SDS011;47353;51.614;5.530;2023-07-29T03:44:16;6.93;;;6.22;;
59788;SDS011;47353;51.614;5.530;2023-07-29T03:46:43;9.73;;;6.40;;
59788;SDS011;47353;51.614;5.530;2023-07-29T03:49:09;7.03;;;5.90;;
59788;SDS011;47353;51.614;5.530;2023-07-29T03:51:34;9.48;;;6.20;;
59788;SDS011;47353;51.614;5.530;2023-07-29T03:54:00;8.52;;;6.68;;
59788;SDS011;47353;51.614;5.530;2023-07-29T03:56:25;12.52;;;6.72;;
59788;SDS011;47353;51.614;5.530;2023-07-29T03:58:51;10.10;;;6.40;;
59788;SDS011;47353;51.614;5.530;2023-07-29T04:01:17;7.50;;;6.30;;
59788;SDS011;47353;51.614;5.530;2023-07-29T04:03:44;9.57;;;6.47;;
59788;SDS011;47353;51.614;5.530;2023-07-29T04:06:11;7.80;;;5.93;;
59788;SDS011;47353;51.614;5.530;2023-07-29T04:08:37;10.05;;;5.57;;
59788;SDS011;47353;51.614;5.530;2023-07-29T04:11:02;7.60;;;5.63;;
59788;SDS011;47353;51.614;5.530;2023-07-29T04:13:28;9.40;;;7.65;;
59788;SDS011;47353;51.614;5.530;2023-07-29T04:15:53;8.57;;;5.53;;
59788;SDS011;47353;51.614;5.530;2023-07-29T04:18:19;8.48;;;5.53;;
59788;SDS011;47353;51.614;5.530;2023-07-29T04:20:44;6.95;;;5.22;;
59788;SDS011;47353;51.614;5.530;2023-07-29T04:23:10;6.75;;;5.10;;
59788;SDS011;47353;51.614;5.530;2023-07-29T04:25:35;7.93;;;5.25;;
59788;SDS011;47353;51.614;5.530;2023-07-29T04:28:01;7.65;;;5.03;;
59788;SDS011;47353;51.614;5.530;2023-07-29T04:30:28;7.15;;;5.63;;
59788;SDS011;47353;51.614;5.530;2023-07-29T04:32:53;9.23;;;5.63;;
59788;SDS011;47353;51.614;5.530;2023-07-29T04:35:19;8.35;;;5.55;;
59788;SDS011;47353;51.614;5.530;2023-07-29T04:37:44;9.57;;;5.72;;
59788;SDS011;47353;51.614;5.530;2023-07-29T04:40:10;7.90;;;5.38;;
59788;SDS011;47353;51.614;5.530;2023-07-29T04:42:36;8.23;;;5.30;;
59788;SDS011;47353;51.614;5.530;2023-07-29T04:45:01;10.32;;;5.70;;
59788;SDS011;47353;51.614;5.530;2023-07-29T04:47:27;8.35;;;5.88;;
59788;SDS011;47353;51.614;5.530;2023-07-29T04:49:52;9.07;;;5.90;;
59788;SDS011;47353;51.614;5.530;2023-07-29T04:52:18;8.65;;;6.00;;
59788;SDS011;47353;51.614;5.530;2023-07-29T04:54:44;9.38;;;6.03;;
59788;SDS011;47353;51.614;5.530;2023-07-29T04:57:11;8.95;;;5.70;;
59788;SDS011;47353;51.614;5.530;2023-07-29T04:59:36;7.35;;;5.32;;
59788;SDS011;47353;51.614;5.530;2023-07-29T05:02:02;7.00;;;5.57;;
59788;SDS011;47353;51.614;5.530;2023-07-29T05:04:27;8.25;;;5.50;;
59788;SDS011;47353;51.614;5.530;2023-07-29T05:06:53;11.55;;;5.22;;
59788;SDS011;47353;51.614;5.530;2023-07-29T05:09:19;6.07;;;5.07;;
59788;SDS011;47353;51.614;5.530;2023-07-29T05:11:47;7.32;;;5.03;;
59788;SDS011;47353;51.614;5.530;2023-07-29T05:14:14;7.95;;;5.10;;
59788;SDS011;47353;51.614;5.530;2023-07-29T05:16:40;8.07;;;5.40;;
59788;SDS011;47353;51.614;5.530;2023-07-29T05:19:05;7.13;;;5.32;;
59788;SDS011;47353;51.614;5.530;2023-07-29T05:21:31;6.75;;;5.50;;
59788;SDS011;47353;51.614;5.530;2023-07-29T05:23:56;8.60;;;5.18;;
59788;SDS011;47353;51.614;5.530;2023-07-29T05:26:22;9.48;;;5.00;;
59788;SDS011;47353;51.614;5.530;2023-07-29T05:28:48;6.75;;;5.10;;
59788;SDS011;47353;51.614;5.530;2023-07-29T05:31:14;5.63;;;4.40;;
59788;SDS011;47353;51.614;5.530;2023-07-29T05:33:39;6.28;;;4.18;;
59788;SDS011;47353;51.614;5.530;2023-07-29T05:36:05;5.70;;;4.20;;
59788;SDS011;47353;51.614;5.530;2023-07-29T05:38:30;6.15;;;4.30;;
59788;SDS011;47353;51.614;5.530;2023-07-29T05:40:56;5.68;;;4.63;;
59788;SDS011;47353;51.614;5.530;2023-07-29T05:43:21;5.82;;;3.85;;
59788;SDS011;47353;51.614;5.530;2023-07-29T05:45:49;7.53;;;4.57;;
59788;SDS011;47353;51.614;5.530;2023-07-29T05:48:14;5.85;;;4.20;;
59788;SDS011;47353;51.614;5.530;2023-07-29T05:50:39;6.00;;;3.90;;
59788;SDS011;47353;51.614;5.530;2023-07-29T05:53:05;5.30;;;4.05;;
59788;SDS011;47353;51.614;5.530;2023-07-29T05:55:30;5.85;;;4.22;;
59788;SDS011;47353;51.614;5.530;2023-07-29T05:57:55;6.25;;;4.03;;
59788;SDS011;47353;51.614;5.530;2023-07-29T06:00:22;5.57;;;4.20;;
59788;SDS011;47353;51.614;5.530;2023-07-29T06:02:48;6.15;;;3.90;;
59788;SDS011;47353;51.614;5.530;2023-07-29T06:05:13;4.50;;;4.00;;
59788;SDS011;47353;51.614;5.530;2023-07-29T06:07:39;7.15;;;4.13;;
59788;SDS011;47353;51.614;5.530;2023-07-29T06:10:09;5.93;;;4.10;;
59788;SDS011;47353;51.614;5.530;2023-07-29T06:12:36;6.10;;;3.92;;
59788;SDS011;47353;51.614;5.530;2023-07-29T06:15:02;5.03;;;3.85;;
59788;SDS011;47353;51.614;5.530;2023-07-29T06:17:28;5.15;;;3.90;;
59788;SDS011;47353;51.614;5.530;2023-07-29T06:19:53;4.60;;;3.95;;
59788;SDS011;47353;51.614;5.530;2023-07-29T06:22:19;6.55;;;3.80;;
59788;SDS011;47353;51.614;5.530;2023-07-29T06:24:44;5.53;;;4.05;;
59788;SDS011;47353;51.614;5.530;2023-07-29T06:27:10;4.18;;;3.45;;
59788;SDS011;47353;51.614;5.530;2023-07-29T06:29:35;5.82;;;3.58;;
59788;SDS011;47353;51.614;5.530;2023-07-29T06:32:01;4.35;;;3.33;;
59788;SDS011;47353;51.614;5.530;2023-07-29T06:34:26;5.22;;;3.90;;
59788;SDS011;47353;51.614;5.530;2023-07-29T06:36:51;6.13;;;3.75;;
59788;SDS011;47353;51.614;5.530;2023-07-29T06:39:17;5.95;;;3.95;;
59788;SDS011;47353;51.614;5.530;2023-07-29T06:41:42;5.60;;;3.72;;
59788;SDS011;47353;51.614;5.530;2023-07-29T06:44:08;7.95;;;5.45;;
59788;SDS011;47353;51.614;5.530;2023-07-29T06:46:33;7.90;;;5.43;;
59788;SDS011;47353;51.614;5.530;2023-07-29T06:48:59;6.15;;;4.80;;
59788;SDS011;47353;51.614;5.530;2023-07-29T06:51:24;7.80;;;5.30;;
59788;SDS011;47353;51.614;5.530;2023-07-29T06:53:49;7.43;;;4.70;;
59788;SDS011;47353;51.614;5.530;2023-07-29T06:56:15;6.22;;;4.60;;
59788;SDS011;47353;51.614;5.530;2023-07-29T06:58:40;6.72;;;4.13;;
59788;SDS011;47353;51.614;5.530;2023-07-29T07:01:06;4.30;;;3.80;;
59788;SDS011;47353;51.614;5.530;2023-07-29T07:03:31;9.02;;;4.90;;
59788;SDS011;47353;51.614;5.530;2023-07-29T07:05:56;5.65;;;3.70;;
59788;SDS011;47353;51.614;5.530;2023-07-29T07:08:22;4.07;;;3.55;;
59788;SDS011;47353;51.614;5.530;2023-07-29T07:10:47;8.75;;;5.60;;
59788;SDS011;47353;51.614;5.530;2023-07-29T07:13:13;7.70;;;4.95;;
59788;SDS011;47353;51.614;5.530;2023-07-29T07:15:38;5.50;;;3.13;;
59788;SDS011;47353;51.614;5.530;2023-07-29T07:18:04;4.40;;;3.28;;
59788;SDS011;47353;51.614;5.530;2023-07-29T07:20:29;7.32;;;3.90;;
59788;SDS011;47353;51.614;5.530;2023-07-29T07:22:55;3.63;;;3.25;;
59788;SDS011;47353;51.614;5.530;2023-07-29T07:25:21;3.38;;;2.90;;
59788;SDS011;47353;51.614;5.530;2023-07-29T07:27:47;4.53;;;3.20;;
59788;SDS011;47353;51.614;5.530;2023-07-29T07:30:13;5.32;;;3.03;;
59788;SDS011;47353;51.614;5.530;2023-07-29T07:32:39;8.13;;;3.80;;
59788;SDS011;47353;51.614;5.530;2023-07-29T07:35:04;9.55;;;5.55;;
59788;SDS011;47353;51.614;5.530;2023-07-29T07:37:30;5.88;;;3.70;;
59788;SDS011;47353;51.614;5.530;2023-07-29T07:39:56;3.20;;;2.90;;
59788;SDS011;47353;51.614;5.530;2023-07-29T07:42:21;4.35;;;2.97;;
59788;SDS011;47353;51.614;5.530;2023-07-29T07:44:46;5.05;;;2.80;;
59788;SDS011;47353;51.614;5.530;2023-07-29T07:47:12;4.97;;;2.75;;
59788;SDS011;47353;51.614;5.530;2023-07-29T07:49:37;3.65;;;2.67;;
59788;SDS011;47353;51.614;5.530;2023-07-29T07:52:02;3.78;;;3.20;;
59788;SDS011;47353;51.614;5.530;2023-07-29T07:54:28;4.15;;;3.05;;
59788;SDS011;47353;51.614;5.530;2023-07-29T07:56:53;5.18;;;2.70;;
59788;SDS011;47353;51.614;5.530;2023-07-29T07:59:19;3.53;;;2.80;;
59788;SDS011;47353;51.614;5.530;2023-07-29T08:01:44;4.88;;;3.00;;
59788;SDS011;47353;51.614;5.530;2023-07-29T08:04:10;4.43;;;2.80;;
59788;SDS011;47353;51.614;5.530;2023-07-29T08:06:35;3.95;;;2.80;;
59788;SDS011;47353;51.614;5.530;2023-07-29T08:09:02;5.75;;;2.80;;
59788;SDS011;47353;51.614;5.530;2023-07-29T08:11:27;4.18;;;2.72;;
59788;SDS011;47353;51.614;5.530;2023-07-29T08:13:53;4.72;;;2.90;;
59788;SDS011;47353;51.614;5.530;2023-07-29T08:16:18;2.80;;;2.38;;
59788;SDS011;47353;51.614;5.530;2023-07-29T08:18:43;4.20;;;2.75;;
59788;SDS011;47353;51.614;5.530;2023-07-29T08:21:09;4.38;;;2.60;;
59788;SDS011;47353;51.614;5.530;2023-07-29T08:23:35;3.80;;;2.90;;
59788;SDS011;47353;51.614;5.530;2023-07-29T08:26:02;3.78;;;2.65;;
59788;SDS011;47353;51.614;5.530;2023-07-29T08:28:30;3.75;;;2.70;;
59788;SDS011;47353;51.614;5.530;2023-07-29T08:30:58;3.17;;;2.50;;
59788;SDS011;47353;51.614;5.530;2023-07-29T08:33:24;4.70;;;2.47;;
59788;SDS011;47353;51.614;5.530;2023-07-29T08:35:49;4.18;;;2.30;;
59788;SDS011;47353;51.614;5.530;2023-07-29T08:38:15;4.72;;;2.47;;
59788;SDS011;47353;51.614;5.530;2023-07-29T08:43:52;4.93;;;2.13;;
59788;SDS011;47353;51.614;5.530;2023-07-29T08:46:24;4.15;;;2.05;;
59788;SDS011;47353;51.614;5.530;2023-07-29T08:48:50;4.32;;;2.10;;
59788;SDS011;47353;51.614;5.530;2023-07-29T08:51:16;2.28;;;1.80;;
59788;SDS011;47353;51.614;5.530;2023-07-29T08:53:43;3.10;;;1.80;;
59788;SDS011;47353;51.614;5.530;2023-07-29T08:56:08;2.28;;;1.70;;
59788;SDS011;47353;51.614;5.530;2023-07-29T08:58:34;2.28;;;1.52;;
59788;SDS011;47353;51.614;5.530;2023-07-29T09:01:00;2.13;;;1.63;;
59788;SDS011;47353;51.614;5.530;2023-07-29T09:03:26;1.67;;;1.40;;
59788;SDS011;47353;51.614;5.530;2023-07-29T09:05:51;3.25;;;1.52;;
59788;SDS011;47353;51.614;5.530;2023-07-29T09:08:20;2.83;;;1.38;;
59788;SDS011;47353;51.614;5.530;2023-07-29T09:10:46;2.08;;;1.45;;
59788;SDS011;47353;51.614;5.530;2023-07-29T09:13:11;2.67;;;1.40;;
59788;SDS011;47353;51.614;5.530;2023-07-29T09:15:37;1.60;;;1.33;;
59788;SDS011;47353;51.614;5.530;2023-07-29T09:18:09;1.90;;;1.10;;
59788;SDS011;47353;51.614;5.530;2023-07-29T09:20:40;2.42;;;1.10;;
59788;SDS011;47353;51.614;5.530;2023-07-29T09:23:07;3.10;;;1.80;;
59788;SDS011;47353;51.614;5.530;2023-07-29T09:25:35;5.28;;;3.00;;
59788;SDS011;47353;51.614;5.530;2023-07-29T09:28:02;2.97;;;2.00;;
59788;SDS011;47353;51.614;5.530;2023-07-29T09:30:33;2.92;;;1.60;;
59788;SDS011;47353;51.614;5.530;2023-07-29T09:32:58;2.05;;;1.10;;
59788;SDS011;47353;51.614;5.530;2023-07-29T09:35:27;1.73;;;1.00;;
59788;SDS011;47353;51.614;5.530;2023-07-29T09:37:55;1.83;;;1.20;;
59788;SDS011;47353;51.614;5.530;2023-07-29T09:40:20;1.17;;;0.82;;
59788;SDS011;47353;51.614;5.530;2023-07-29T09:42:53;4.00;;;2.40;;
59788;SDS011;47353;51.614;5.530;2023-07-29T09:45:23;1.33;;;1.05;;
59788;SDS011;47353;51.614;5.530;2023-07-29T09:47:50;1.83;;;1.10;;
59788;SDS011;47353;51.614;5.530;2023-07-29T09:50:15;2.25;;;1.00;;
59788;SDS011;47353;51.614;5.530;2023-07-29T09:52:41;1.65;;;0.90;;
59788;SDS011;47353;51.614;5.530;2023-07-29T09:55:09;3.33;;;1.23;;
59788;SDS011;47353;51.614;5.530;2023-07-29T09:57:35;2.00;;;1.38;;
59788;SDS011;47353;51.614;5.530;2023-07-29T10:00:03;3.53;;;2.30;;
59788;SDS011;47353;51.614;5.530;2023-07-29T10:02:35;2.20;;;1.10;;
59788;SDS011;47353;51.614;5.530;2023-07-29T10:05:01;1.30;;;1.15;;
59788;SDS011;47353;51.614;5.530;2023-07-29T10:07:28;2.70;;;1.17;;
59788;SDS011;47353;51.614;5.530;2023-07-29T10:09:54;4.05;;;1.50;;
59788;SDS011;47353;51.614;5.530;2023-07-29T10:12:22;1.90;;;1.30;;
59788;SDS011;47353;51.614;5.530;2023-07-29T10:14:48;2.35;;;1.00;;
